sensor_id;sensor_type;location;lat;lon;timestamp;P1;durP1;ratioP1;P2;durP2;ratioP2
69511;SDS011;70777;52.034;4.644;2023-08-06T00:01:11;19.75;;;11.77;;
69511;SDS011;70777;52.034;4.644;2023-08-06T00:03:36;18.92;;;11.63;;
69511;SDS011;70777;52.034;4.644;2023-08-06T00:06:02;20.98;;;12.10;;
69511;SDS011;70777;52.034;4.644;2023-08-06T00:08:27;21.40;;;12.02;;
69511;SDS011;70777;52.034;4.644;2023-08-06T00:10:53;20.13;;;11.85;;
69511;SDS011;70777;52.034;4.644;2023-08-06T00:13:18;21.33;;;12.05;;
69511;SDS011;70777;52.034;4.644;2023-08-06T00:15:44;19.60;;;12.32;;
69511;SDS011;70777;52.034;4.644;2023-08-06T00:18:09;19.48;;;12.20;;
69511;SDS011;70777;52.034;4.644;2023-08-06T00:20:35;18.50;;;11.40;;
69511;SDS011;70777;52.034;4.644;2023-08-06T00:23:00;18.10;;;11.30;;
69511;SDS011;70777;52.034;4.644;2023-08-06T00:25:25;21.15;;;11.95;;
69511;SDS011;70777;52.034;4.644;2023-08-06T00:27:51;19.58;;;10.40;;
69511;SDS011;70777;52.034;4.644;2023-08-06T00:30:16;20.55;;;11.57;;
69511;SDS011;70777;52.034;4.644;2023-08-06T00:32:41;19.23;;;11.13;;
69511;SDS011;70777;52.034;4.644;2023-08-06T00:35:07;19.55;;;11.15;;
69511;SDS011;70777;52.034;4.644;2023-08-06T00:37:33;16.27;;;9.82;;
69511;SDS011;70777;52.034;4.644;2023-08-06T00:39:58;18.63;;;10.43;;
69511;SDS011;70777;52.034;4.644;2023-08-06T00:42:23;20.92;;;11.00;;
69511;SDS011;70777;52.034;4.644;2023-08-06T00:44:49;17.23;;;9.80;;
69511;SDS011;70777;52.034;4.644;2023-08-06T00:47:14;19.65;;;11.18;;
69511;SDS011;70777;52.034;4.644;2023-08-06T00:49:40;19.92;;;11.45;;
69511;SDS011;70777;52.034;4.644;2023-08-06T00:52:06;21.80;;;12.23;;
69511;SDS011;70777;52.034;4.644;2023-08-06T00:54:32;20.88;;;11.90;;
69511;SDS011;70777;52.034;4.644;2023-08-06T00:56:58;20.88;;;12.02;;
69511;SDS011;70777;52.034;4.644;2023-08-06T00:59:24;20.95;;;11.80;;
69511;SDS011;70777;52.034;4.644;2023-08-06T01:01:50;19.00;;;11.70;;
69511;SDS011;70777;52.034;4.644;2023-08-06T01:04:16;22.92;;;12.65;;
69511;SDS011;70777;52.034;4.644;2023-08-06T01:06:48;23.10;;;11.57;;
69511;SDS011;70777;52.034;4.644;2023-08-06T01:12:24;21.38;;;11.80;;
69511;SDS011;70777;52.034;4.644;2023-08-06T01:17:29;21.00;;;12.50;;
69511;SDS011;70777;52.034;4.644;2023-08-06T01:19:55;20.55;;;12.45;;
69511;SDS011;70777;52.034;4.644;2023-08-06T01:22:21;24.48;;;13.05;;
69511;SDS011;70777;52.034;4.644;2023-08-06T01:24:47;22.95;;;12.05;;
69511;SDS011;70777;52.034;4.644;2023-08-06T01:27:22;22.40;;;11.65;;
69511;SDS011;70777;52.034;4.644;2023-08-06T01:32:35;19.27;;;11.43;;
69511;SDS011;70777;52.034;4.644;2023-08-06T01:35:04;21.70;;;12.90;;
69511;SDS011;70777;52.034;4.644;2023-08-06T01:37:31;20.23;;;12.23;;
69511;SDS011;70777;52.034;4.644;2023-08-06T01:39:57;22.20;;;13.07;;
69511;SDS011;70777;52.034;4.644;2023-08-06T01:42:22;23.55;;;12.98;;
69511;SDS011;70777;52.034;4.644;2023-08-06T01:44:48;19.75;;;12.60;;
69511;SDS011;70777;52.034;4.644;2023-08-06T01:47:13;21.85;;;12.70;;
69511;SDS011;70777;52.034;4.644;2023-08-06T01:49:39;26.45;;;13.48;;
69511;SDS011;70777;52.034;4.644;2023-08-06T01:52:04;23.40;;;12.15;;
69511;SDS011;70777;52.034;4.644;2023-08-06T01:54:30;26.70;;;14.00;;
69511;SDS011;70777;52.034;4.644;2023-08-06T01:56:56;22.35;;;13.45;;
69511;SDS011;70777;52.034;4.644;2023-08-06T01:59:23;19.92;;;12.10;;
69511;SDS011;70777;52.034;4.644;2023-08-06T02:01:49;20.70;;;12.15;;
69511;SDS011;70777;52.034;4.644;2023-08-06T02:04:14;23.58;;;12.70;;
69511;SDS011;70777;52.034;4.644;2023-08-06T02:06:39;24.25;;;13.05;;
69511;SDS011;70777;52.034;4.644;2023-08-06T02:09:05;21.80;;;11.35;;
69511;SDS011;70777;52.034;4.644;2023-08-06T02:11:30;26.38;;;12.88;;
69511;SDS011;70777;52.034;4.644;2023-08-06T02:13:56;20.80;;;11.73;;
69511;SDS011;70777;52.034;4.644;2023-08-06T02:16:21;23.65;;;12.77;;
69511;SDS011;70777;52.034;4.644;2023-08-06T02:18:47;22.88;;;12.50;;
69511;SDS011;70777;52.034;4.644;2023-08-06T02:21:13;24.90;;;12.20;;
69511;SDS011;70777;52.034;4.644;2023-08-06T02:23:38;21.25;;;11.50;;
69511;SDS011;70777;52.034;4.644;2023-08-06T02:26:04;21.45;;;12.43;;
69511;SDS011;70777;52.034;4.644;2023-08-06T02:28:30;24.70;;;12.30;;
69511;SDS011;70777;52.034;4.644;2023-08-06T02:30:56;20.27;;;12.85;;
69511;SDS011;70777;52.034;4.644;2023-08-06T02:33:22;19.05;;;11.75;;
69511;SDS011;70777;52.034;4.644;2023-08-06T02:35:48;19.20;;;12.32;;
69511;SDS011;70777;52.034;4.644;2023-08-06T02:38:13;20.50;;;11.65;;
69511;SDS011;70777;52.034;4.644;2023-08-06T02:40:45;25.65;;;13.93;;
69511;SDS011;70777;52.034;4.644;2023-08-06T02:43:11;21.17;;;11.93;;
69511;SDS011;70777;52.034;4.644;2023-08-06T02:45:37;22.23;;;13.32;;
69511;SDS011;70777;52.034;4.644;2023-08-06T02:48:03;24.50;;;13.63;;
69511;SDS011;70777;52.034;4.644;2023-08-06T02:50:28;23.33;;;14.05;;
69511;SDS011;70777;52.034;4.644;2023-08-06T02:52:54;24.10;;;12.80;;
69511;SDS011;70777;52.034;4.644;2023-08-06T02:55:19;26.95;;;14.18;;
69511;SDS011;70777;52.034;4.644;2023-08-06T02:57:45;24.27;;;13.68;;
69511;SDS011;70777;52.034;4.644;2023-08-06T03:00:10;23.83;;;13.93;;
69511;SDS011;70777;52.034;4.644;2023-08-06T03:02:36;26.50;;;14.93;;
69511;SDS011;70777;52.034;4.644;2023-08-06T03:05:02;28.27;;;13.60;;
69511;SDS011;70777;52.034;4.644;2023-08-06T03:07:28;24.48;;;14.23;;
69511;SDS011;70777;52.034;4.644;2023-08-06T03:09:54;24.83;;;14.05;;
69511;SDS011;70777;52.034;4.644;2023-08-06T03:12:20;23.65;;;13.07;;
69511;SDS011;70777;52.034;4.644;2023-08-06T03:14:45;26.40;;;14.77;;
69511;SDS011;70777;52.034;4.644;2023-08-06T03:17:10;26.42;;;14.55;;
69511;SDS011;70777;52.034;4.644;2023-08-06T03:19:36;27.02;;;13.85;;
69511;SDS011;70777;52.034;4.644;2023-08-06T03:22:01;23.63;;;13.55;;
69511;SDS011;70777;52.034;4.644;2023-08-06T03:24:27;26.95;;;13.52;;
69511;SDS011;70777;52.034;4.644;2023-08-06T03:26:52;22.95;;;13.23;;
69511;SDS011;70777;52.034;4.644;2023-08-06T03:29:18;25.45;;;13.75;;
69511;SDS011;70777;52.034;4.644;2023-08-06T03:31:43;19.80;;;11.43;;
69511;SDS011;70777;52.034;4.644;2023-08-06T03:34:09;18.38;;;9.93;;
69511;SDS011;70777;52.034;4.644;2023-08-06T03:36:34;14.05;;;8.25;;
69511;SDS011;70777;52.034;4.644;2023-08-06T03:39:00;13.15;;;7.15;;
69511;SDS011;70777;52.034;4.644;2023-08-06T03:41:25;12.10;;;5.90;;
69511;SDS011;70777;52.034;4.644;2023-08-06T03:43:51;7.45;;;4.13;;
69511;SDS011;70777;52.034;4.644;2023-08-06T03:46:16;8.93;;;4.18;;
69511;SDS011;70777;52.034;4.644;2023-08-06T03:48:42;7.50;;;5.03;;
69511;SDS011;70777;52.034;4.644;2023-08-06T03:51:07;8.60;;;4.90;;
69511;SDS011;70777;52.034;4.644;2023-08-06T03:53:32;11.55;;;6.28;;
69511;SDS011;70777;52.034;4.644;2023-08-06T03:55:59;13.52;;;8.02;;
69511;SDS011;70777;52.034;4.644;2023-08-06T03:58:25;16.13;;;8.73;;
69511;SDS011;70777;52.034;4.644;2023-08-06T04:00:58;18.43;;;9.03;;
69511;SDS011;70777;52.034;4.644;2023-08-06T04:03:27;12.57;;;6.78;;
69511;SDS011;70777;52.034;4.644;2023-08-06T04:05:53;7.53;;;5.22;;
69511;SDS011;70777;52.034;4.644;2023-08-06T04:08:19;10.60;;;5.03;;
69511;SDS011;70777;52.034;4.644;2023-08-06T04:10:44;8.45;;;4.82;;
69511;SDS011;70777;52.034;4.644;2023-08-06T04:13:10;11.10;;;4.28;;
69511;SDS011;70777;52.034;4.644;2023-08-06T04:15:35;9.88;;;4.28;;
69511;SDS011;70777;52.034;4.644;2023-08-06T04:18:01;6.70;;;4.40;;
69511;SDS011;70777;52.034;4.644;2023-08-06T04:20:26;11.65;;;4.18;;
69511;SDS011;70777;52.034;4.644;2023-08-06T04:22:54;8.13;;;3.80;;
69511;SDS011;70777;52.034;4.644;2023-08-06T04:25:20;10.98;;;4.55;;
69511;SDS011;70777;52.034;4.644;2023-08-06T04:27:48;8.88;;;4.38;;
69511;SDS011;70777;52.034;4.644;2023-08-06T04:30:14;8.52;;;4.43;;
69511;SDS011;70777;52.034;4.644;2023-08-06T04:32:40;8.52;;;4.57;;
69511;SDS011;70777;52.034;4.644;2023-08-06T04:35:06;8.07;;;4.57;;
69511;SDS011;70777;52.034;4.644;2023-08-06T04:37:31;8.27;;;4.32;;
69511;SDS011;70777;52.034;4.644;2023-08-06T04:39:57;8.88;;;4.80;;
69511;SDS011;70777;52.034;4.644;2023-08-06T04:42:22;10.80;;;5.25;;
69511;SDS011;70777;52.034;4.644;2023-08-06T04:44:50;12.93;;;5.50;;
69511;SDS011;70777;52.034;4.644;2023-08-06T04:47:16;9.20;;;4.30;;
69511;SDS011;70777;52.034;4.644;2023-08-06T04:49:42;11.25;;;4.45;;
69511;SDS011;70777;52.034;4.644;2023-08-06T04:52:08;11.93;;;4.53;;
69511;SDS011;70777;52.034;4.644;2023-08-06T04:54:33;10.90;;;4.60;;
69511;SDS011;70777;52.034;4.644;2023-08-06T04:56:59;11.45;;;4.63;;
69511;SDS011;70777;52.034;4.644;2023-08-06T04:59:27;9.75;;;4.82;;
69511;SDS011;70777;52.034;4.644;2023-08-06T05:01:53;10.93;;;5.00;;
69511;SDS011;70777;52.034;4.644;2023-08-06T05:04:19;13.05;;;4.93;;
69511;SDS011;70777;52.034;4.644;2023-08-06T05:06:44;10.55;;;5.63;;
69511;SDS011;70777;52.034;4.644;2023-08-06T05:09:10;13.30;;;5.78;;
69511;SDS011;70777;52.034;4.644;2023-08-06T05:11:35;9.10;;;4.95;;
69511;SDS011;70777;52.034;4.644;2023-08-06T05:14:01;11.20;;;6.00;;
69511;SDS011;70777;52.034;4.644;2023-08-06T05:16:27;11.50;;;5.88;;
69511;SDS011;70777;52.034;4.644;2023-08-06T05:18:53;9.63;;;5.00;;
69511;SDS011;70777;52.034;4.644;2023-08-06T05:21:19;11.63;;;5.85;;
69511;SDS011;70777;52.034;4.644;2023-08-06T05:23:47;8.32;;;6.00;;
69511;SDS011;70777;52.034;4.644;2023-08-06T05:26:13;7.63;;;4.95;;
69511;SDS011;70777;52.034;4.644;2023-08-06T05:28:41;13.45;;;5.68;;
69511;SDS011;70777;52.034;4.644;2023-08-06T05:31:06;9.98;;;5.50;;
69511;SDS011;70777;52.034;4.644;2023-08-06T05:33:41;9.25;;;5.63;;
69511;SDS011;70777;52.034;4.644;2023-08-06T05:36:06;11.32;;;4.97;;
69511;SDS011;70777;52.034;4.644;2023-08-06T05:38:32;10.32;;;5.78;;
69511;SDS011;70777;52.034;4.644;2023-08-06T05:41:01;11.63;;;5.32;;
69511;SDS011;70777;52.034;4.644;2023-08-06T05:43:26;13.48;;;6.10;;
69511;SDS011;70777;52.034;4.644;2023-08-06T05:45:52;11.98;;;5.80;;
69511;SDS011;70777;52.034;4.644;2023-08-06T05:48:18;11.18;;;5.70;;
69511;SDS011;70777;52.034;4.644;2023-08-06T05:50:54;9.70;;;5.50;;
69511;SDS011;70777;52.034;4.644;2023-08-06T05:53:19;9.20;;;5.63;;
69511;SDS011;70777;52.034;4.644;2023-08-06T05:55:45;10.13;;;6.13;;
69511;SDS011;70777;52.034;4.644;2023-08-06T05:58:11;12.88;;;6.05;;
69511;SDS011;70777;52.034;4.644;2023-08-06T06:00:36;12.57;;;6.55;;
69511;SDS011;70777;52.034;4.644;2023-08-06T06:03:02;12.30;;;6.55;;
69511;SDS011;70777;52.034;4.644;2023-08-06T06:05:28;11.95;;;6.40;;
69511;SDS011;70777;52.034;4.644;2023-08-06T06:07:54;15.55;;;7.40;;
69511;SDS011;70777;52.034;4.644;2023-08-06T06:10:19;13.30;;;6.45;;
69511;SDS011;70777;52.034;4.644;2023-08-06T06:12:45;15.27;;;7.00;;
69511;SDS011;70777;52.034;4.644;2023-08-06T06:15:11;13.65;;;7.18;;
69511;SDS011;70777;52.034;4.644;2023-08-06T06:17:36;14.02;;;7.22;;
69511;SDS011;70777;52.034;4.644;2023-08-06T06:20:03;11.88;;;6.60;;
69511;SDS011;70777;52.034;4.644;2023-08-06T06:22:30;10.97;;;7.17;;
69511;SDS011;70777;52.034;4.644;2023-08-06T06:24:55;13.32;;;7.50;;
69511;SDS011;70777;52.034;4.644;2023-08-06T06:27:21;11.23;;;6.82;;
69511;SDS011;70777;52.034;4.644;2023-08-06T06:29:50;14.98;;;7.63;;
69511;SDS011;70777;52.034;4.644;2023-08-06T06:32:17;11.90;;;6.05;;
69511;SDS011;70777;52.034;4.644;2023-08-06T06:34:43;11.15;;;6.95;;
69511;SDS011;70777;52.034;4.644;2023-08-06T06:37:08;12.15;;;6.35;;
69511;SDS011;70777;52.034;4.644;2023-08-06T06:39:34;15.82;;;7.45;;
69511;SDS011;70777;52.034;4.644;2023-08-06T06:42:00;16.70;;;5.63;;
69511;SDS011;70777;52.034;4.644;2023-08-06T06:44:25;10.55;;;5.30;;
69511;SDS011;70777;52.034;4.644;2023-08-06T06:46:51;15.45;;;5.72;;
69511;SDS011;70777;52.034;4.644;2023-08-06T06:49:17;14.05;;;5.05;;
69511;SDS011;70777;52.034;4.644;2023-08-06T06:51:42;13.05;;;4.43;;
69511;SDS011;70777;52.034;4.644;2023-08-06T06:54:08;12.95;;;4.65;;
69511;SDS011;70777;52.034;4.644;2023-08-06T06:56:33;8.98;;;3.72;;
69511;SDS011;70777;52.034;4.644;2023-08-06T06:58:59;11.65;;;3.78;;
69511;SDS011;70777;52.034;4.644;2023-08-06T07:01:24;14.52;;;3.50;;
69511;SDS011;70777;52.034;4.644;2023-08-06T07:03:50;7.78;;;2.50;;
69511;SDS011;70777;52.034;4.644;2023-08-06T07:06:15;6.90;;;2.83;;
69511;SDS011;70777;52.034;4.644;2023-08-06T07:08:43;5.03;;;2.35;;
69511;SDS011;70777;52.034;4.644;2023-08-06T07:11:10;6.78;;;2.30;;
69511;SDS011;70777;52.034;4.644;2023-08-06T07:13:38;6.05;;;2.15;;
69511;SDS011;70777;52.034;4.644;2023-08-06T07:16:04;5.22;;;1.85;;
69511;SDS011;70777;52.034;4.644;2023-08-06T07:18:29;5.70;;;1.70;;
69511;SDS011;70777;52.034;4.644;2023-08-06T07:20:55;5.28;;;1.88;;
69511;SDS011;70777;52.034;4.644;2023-08-06T07:23:23;5.95;;;1.98;;
69511;SDS011;70777;52.034;4.644;2023-08-06T07:25:49;4.30;;;1.90;;
69511;SDS011;70777;52.034;4.644;2023-08-06T07:28:15;4.47;;;2.20;;
69511;SDS011;70777;52.034;4.644;2023-08-06T07:30:41;5.50;;;1.90;;
69511;SDS011;70777;52.034;4.644;2023-08-06T07:33:10;6.80;;;2.03;;
69511;SDS011;70777;52.034;4.644;2023-08-06T07:35:36;5.78;;;1.70;;
69511;SDS011;70777;52.034;4.644;2023-08-06T07:38:02;4.32;;;1.98;;
69511;SDS011;70777;52.034;4.644;2023-08-06T07:40:28;4.05;;;1.75;;
69511;SDS011;70777;52.034;4.644;2023-08-06T07:42:54;7.55;;;2.42;;
69511;SDS011;70777;52.034;4.644;2023-08-06T07:45:20;3.33;;;1.60;;
69511;SDS011;70777;52.034;4.644;2023-08-06T07:47:45;7.72;;;1.85;;
69511;SDS011;70777;52.034;4.644;2023-08-06T07:50:12;2.97;;;1.55;;
69511;SDS011;70777;52.034;4.644;2023-08-06T07:52:38;4.32;;;1.85;;
69511;SDS011;70777;52.034;4.644;2023-08-06T07:55:03;5.05;;;1.75;;
69511;SDS011;70777;52.034;4.644;2023-08-06T07:57:32;4.88;;;1.70;;
69511;SDS011;70777;52.034;4.644;2023-08-06T08:00:03;5.50;;;1.83;;
69511;SDS011;70777;52.034;4.644;2023-08-06T08:02:29;5.70;;;1.98;;
69511;SDS011;70777;52.034;4.644;2023-08-06T08:04:55;7.78;;;1.98;;
69511;SDS011;70777;52.034;4.644;2023-08-06T08:07:21;3.60;;;1.65;;
69511;SDS011;70777;52.034;4.644;2023-08-06T08:09:46;3.42;;;1.50;;
69511;SDS011;70777;52.034;4.644;2023-08-06T08:12:13;3.97;;;1.70;;
69511;SDS011;70777;52.034;4.644;2023-08-06T08:14:39;19.35;;;2.25;;
69511;SDS011;70777;52.034;4.644;2023-08-06T08:17:04;3.45;;;1.40;;
69511;SDS011;70777;52.034;4.644;2023-08-06T08:19:31;2.83;;;1.42;;
69511;SDS011;70777;52.034;4.644;2023-08-06T08:21:59;3.95;;;1.42;;
69511;SDS011;70777;52.034;4.644;2023-08-06T08:24:25;3.97;;;1.63;;
69511;SDS011;70777;52.034;4.644;2023-08-06T08:26:51;2.97;;;1.55;;
69511;SDS011;70777;52.034;4.644;2023-08-06T08:29:17;2.60;;;1.48;;
69511;SDS011;70777;52.034;4.644;2023-08-06T08:31:42;5.60;;;1.98;;
69511;SDS011;70777;52.034;4.644;2023-08-06T08:34:09;6.50;;;1.75;;
69511;SDS011;70777;52.034;4.644;2023-08-06T08:36:35;5.32;;;1.60;;
69511;SDS011;70777;52.034;4.644;2023-08-06T08:39:01;5.63;;;1.42;;
69511;SDS011;70777;52.034;4.644;2023-08-06T08:41:32;2.92;;;1.55;;
69511;SDS011;70777;52.034;4.644;2023-08-06T08:43:58;8.55;;;1.67;;
69511;SDS011;70777;52.034;4.644;2023-08-06T08:46:31;3.67;;;1.70;;
69511;SDS011;70777;52.034;4.644;2023-08-06T08:48:58;8.68;;;2.30;;
69511;SDS011;70777;52.034;4.644;2023-08-06T08:51:25;6.70;;;1.73;;
69511;SDS011;70777;52.034;4.644;2023-08-06T08:53:52;7.00;;;1.67;;
69511;SDS011;70777;52.034;4.644;2023-08-06T08:56:21;7.88;;;2.13;;
69511;SDS011;70777;52.034;4.644;2023-08-06T08:58:47;3.45;;;1.52;;
69511;SDS011;70777;52.034;4.644;2023-08-06T09:01:13;4.80;;;1.67;;
69511;SDS011;70777;52.034;4.644;2023-08-06T09:03:40;7.43;;;2.00;;
69511;SDS011;70777;52.034;4.644;2023-08-06T09:06:06;4.90;;;1.90;;
69511;SDS011;70777;52.034;4.644;2023-08-06T09:08:36;5.20;;;2.00;;
69511;SDS011;70777;52.034;4.644;2023-08-06T09:11:04;6.22;;;1.80;;
69511;SDS011;70777;52.034;4.644;2023-08-06T09:13:30;6.00;;;2.00;;
69511;SDS011;70777;52.034;4.644;2023-08-06T09:15:55;4.68;;;2.22;;
69511;SDS011;70777;52.034;4.644;2023-08-06T09:18:25;3.15;;;1.55;;
69511;SDS011;70777;52.034;4.644;2023-08-06T09:20:52;4.32;;;1.70;;
69511;SDS011;70777;52.034;4.644;2023-08-06T09:23:18;6.65;;;1.67;;
69511;SDS011;70777;52.034;4.644;2023-08-06T09:25:45;4.90;;;1.90;;
69511;SDS011;70777;52.034;4.644;2023-08-06T09:28:11;5.63;;;2.13;;
69511;SDS011;70777;52.034;4.644;2023-08-06T09:30:37;7.85;;;1.63;;
69511;SDS011;70777;52.034;4.644;2023-08-06T09:33:03;3.83;;;1.98;;
69511;SDS011;70777;52.034;4.644;2023-08-06T09:35:29;4.20;;;1.77;;
69511;SDS011;70777;52.034;4.644;2023-08-06T09:37:55;4.05;;;1.77;;
69511;SDS011;70777;52.034;4.644;2023-08-06T09:40:32;5.63;;;1.80;;
69511;SDS011;70777;52.034;4.644;2023-08-06T09:42:59;4.68;;;1.70;;
69511;SDS011;70777;52.034;4.644;2023-08-06T09:45:28;3.47;;;1.60;;
69511;SDS011;70777;52.034;4.644;2023-08-06T09:47:57;5.97;;;1.50;;
69511;SDS011;70777;52.034;4.644;2023-08-06T09:50:25;5.28;;;2.13;;
69511;SDS011;70777;52.034;4.644;2023-08-06T09:52:55;4.07;;;1.95;;
69511;SDS011;70777;52.034;4.644;2023-08-06T09:55:24;3.33;;;1.42;;
69511;SDS011;70777;52.034;4.644;2023-08-06T09:57:51;4.05;;;1.25;;
69511;SDS011;70777;52.034;4.644;2023-08-06T10:00:17;3.53;;;1.33;;
69511;SDS011;70777;52.034;4.644;2023-08-06T10:02:43;3.63;;;1.45;;
69511;SDS011;70777;52.034;4.644;2023-08-06T10:05:09;3.00;;;1.27;;
69511;SDS011;70777;52.034;4.644;2023-08-06T10:07:35;4.70;;;1.42;;
69511;SDS011;70777;52.034;4.644;2023-08-06T10:10:02;6.00;;;1.60;;
69511;SDS011;70777;52.034;4.644;2023-08-06T10:12:28;6.70;;;1.58;;
69511;SDS011;70777;52.034;4.644;2023-08-06T10:14:56;3.72;;;1.48;;
69511;SDS011;70777;52.034;4.644;2023-08-06T10:17:23;2.70;;;1.25;;
69511;SDS011;70777;52.034;4.644;2023-08-06T10:19:49;3.53;;;1.40;;
69511;SDS011;70777;52.034;4.644;2023-08-06T10:22:16;3.65;;;1.30;;
69511;SDS011;70777;52.034;4.644;2023-08-06T10:24:54;4.22;;;1.20;;
69511;SDS011;70777;52.034;4.644;2023-08-06T10:27:36;3.47;;;1.17;;
69511;SDS011;70777;52.034;4.644;2023-08-06T10:30:24;4.70;;;1.35;;
69511;SDS011;70777;52.034;4.644;2023-08-06T10:32:54;3.17;;;1.13;;
69511;SDS011;70777;52.034;4.644;2023-08-06T10:38:09;1.75;;;0.93;;
69511;SDS011;70777;52.034;4.644;2023-08-06T10:40:49;1.77;;;1.00;;
69511;SDS011;70777;52.034;4.644;2023-08-06T10:43:27;2.25;;;1.10;;
69511;SDS011;70777;52.034;4.644;2023-08-06T10:45:54;3.05;;;1.00;;
69511;SDS011;70777;52.034;4.644;2023-08-06T10:48:36;2.75;;;1.00;;
69511;SDS011;70777;52.034;4.644;2023-08-06T10:51:09;2.63;;;1.20;;
69511;SDS011;70777;52.034;4.644;2023-08-06T10:53:36;2.05;;;1.10;;
69511;SDS011;70777;52.034;4.644;2023-08-06T10:56:02;3.25;;;0.90;;
69511;SDS011;70777;52.034;4.644;2023-08-06T10:58:47;8.57;;;1.08;;
69511;SDS011;70777;52.034;4.644;2023-08-06T11:01:13;3.58;;;1.10;;
69511;SDS011;70777;52.034;4.644;2023-08-06T11:03:39;2.60;;;1.10;;
69511;SDS011;70777;52.034;4.644;2023-08-06T11:06:08;5.15;;;1.08;;
69511;SDS011;70777;52.034;4.644;2023-08-06T11:08:38;1.95;;;1.08;;
69511;SDS011;70777;52.034;4.644;2023-08-06T11:11:13;3.15;;;1.00;;
69511;SDS011;70777;52.034;4.644;2023-08-06T11:13:39;5.50;;;1.23;;
69511;SDS011;70777;52.034;4.644;2023-08-06T11:16:05;2.45;;;1.20;;
69511;SDS011;70777;52.034;4.644;2023-08-06T11:18:34;3.60;;;1.20;;
69511;SDS011;70777;52.034;4.644;2023-08-06T11:21:00;1.65;;;1.02;;
69511;SDS011;70777;52.034;4.644;2023-08-06T11:23:27;2.35;;;1.38;;
69511;SDS011;70777;52.034;4.644;2023-08-06T11:25:53;3.78;;;1.30;;
69511;SDS011;70777;52.034;4.644;2023-08-06T11:28:19;3.23;;;1.20;;
69511;SDS011;70777;52.034;4.644;2023-08-06T11:30:46;2.55;;;1.00;;
69511;SDS011;70777;52.034;4.644;2023-08-06T11:33:12;3.23;;;1.37;;
69511;SDS011;70777;52.034;4.644;2023-08-06T11:35:38;2.40;;;1.00;;
69511;SDS011;70777;52.034;4.644;2023-08-06T11:38:05;2.83;;;1.20;;
69511;SDS011;70777;52.034;4.644;2023-08-06T11:40:35;4.73;;;1.47;;
69511;SDS011;70777;52.034;4.644;2023-08-06T11:43:00;2.25;;;0.93;;
69511;SDS011;70777;52.034;4.644;2023-08-06T11:45:26;2.13;;;1.10;;
69511;SDS011;70777;52.034;4.644;2023-08-06T11:47:55;1.20;;;0.80;;
69511;SDS011;70777;52.034;4.644;2023-08-06T11:50:24;5.17;;;1.20;;
69511;SDS011;70777;52.034;4.644;2023-08-06T11:52:58;2.95;;;0.93;;
69511;SDS011;70777;52.034;4.644;2023-08-06T11:55:25;1.77;;;0.80;;
69511;SDS011;70777;52.034;4.644;2023-08-06T11:57:53;3.75;;;0.90;;
69511;SDS011;70777;52.034;4.644;2023-08-06T12:00:19;4.35;;;0.93;;
69511;SDS011;70777;52.034;4.644;2023-08-06T12:02:47;2.15;;;0.73;;
69511;SDS011;70777;52.034;4.644;2023-08-06T12:05:15;1.83;;;0.90;;
69511;SDS011;70777;52.034;4.644;2023-08-06T12:07:42;3.72;;;0.73;;
69511;SDS011;70777;52.034;4.644;2023-08-06T12:10:09;3.28;;;0.82;;
69511;SDS011;70777;52.034;4.644;2023-08-06T12:12:35;4.50;;;0.73;;
69511;SDS011;70777;52.034;4.644;2023-08-06T12:17:28;3.17;;;0.70;;
69511;SDS011;70777;52.034;4.644;2023-08-06T12:19:53;1.80;;;0.80;;
69511;SDS011;70777;52.034;4.644;2023-08-06T12:22:19;1.53;;;0.50;;
69511;SDS011;70777;52.034;4.644;2023-08-06T12:24:45;0.73;;;0.50;;
69511;SDS011;70777;52.034;4.644;2023-08-06T12:27:12;2.70;;;0.77;;
69511;SDS011;70777;52.034;4.644;2023-08-06T12:29:45;2.42;;;0.50;;
69511;SDS011;70777;52.034;4.644;2023-08-06T12:32:13;2.17;;;0.47;;
69511;SDS011;70777;52.034;4.644;2023-08-06T12:34:39;0.90;;;0.50;;
69511;SDS011;70777;52.034;4.644;2023-08-06T12:37:05;0.95;;;0.40;;
69511;SDS011;70777;52.034;4.644;2023-08-06T12:39:32;4.63;;;0.43;;
69511;SDS011;70777;52.034;4.644;2023-08-06T12:42:01;3.10;;;0.90;;
69511;SDS011;70777;52.034;4.644;2023-08-06T12:44:32;1.08;;;0.40;;
69511;SDS011;70777;52.034;4.644;2023-08-06T12:46:58;2.28;;;0.43;;
69511;SDS011;70777;52.034;4.644;2023-08-06T12:49:27;4.85;;;0.90;;
69511;SDS011;70777;52.034;4.644;2023-08-06T12:51:56;2.97;;;0.50;;
69511;SDS011;70777;52.034;4.644;2023-08-06T12:54:22;2.07;;;0.70;;
69511;SDS011;70777;52.034;4.644;2023-08-06T12:56:48;1.50;;;0.50;;
69511;SDS011;70777;52.034;4.644;2023-08-06T12:59:14;2.30;;;0.80;;
69511;SDS011;70777;52.034;4.644;2023-08-06T13:01:40;1.00;;;0.38;;
69511;SDS011;70777;52.034;4.644;2023-08-06T13:04:06;2.33;;;0.50;;
69511;SDS011;70777;52.034;4.644;2023-08-06T13:06:32;0.90;;;0.50;;
69511;SDS011;70777;52.034;4.644;2023-08-06T13:09:11;1.83;;;0.65;;
69511;SDS011;70777;52.034;4.644;2023-08-06T13:11:37;3.40;;;0.70;;
69511;SDS011;70777;52.034;4.644;2023-08-06T13:14:13;0.68;;;0.43;;
69511;SDS011;70777;52.034;4.644;2023-08-06T13:16:40;3.05;;;0.93;;
69511;SDS011;70777;52.034;4.644;2023-08-06T13:19:09;2.55;;;0.73;;
69511;SDS011;70777;52.034;4.644;2023-08-06T13:24:07;0.93;;;0.63;;
69511;SDS011;70777;52.034;4.644;2023-08-06T13:26:33;3.30;;;0.65;;
69511;SDS011;70777;52.034;4.644;2023-08-06T13:28:59;2.95;;;0.90;;
69511;SDS011;70777;52.034;4.644;2023-08-06T13:31:26;1.75;;;0.80;;
69511;SDS011;70777;52.034;4.644;2023-08-06T13:33:52;1.48;;;0.90;;
69511;SDS011;70777;52.034;4.644;2023-08-06T13:36:20;2.30;;;0.95;;
69511;SDS011;70777;52.034;4.644;2023-08-06T13:38:46;3.40;;;1.00;;
69511;SDS011;70777;52.034;4.644;2023-08-06T13:41:12;3.17;;;1.10;;
69511;SDS011;70777;52.034;4.644;2023-08-06T13:43:38;3.88;;;1.10;;
69511;SDS011;70777;52.034;4.644;2023-08-06T13:46:04;4.45;;;1.08;;
69511;SDS011;70777;52.034;4.644;2023-08-06T13:48:29;2.30;;;1.20;;
69511;SDS011;70777;52.034;4.644;2023-08-06T13:50:55;3.42;;;0.80;;
69511;SDS011;70777;52.034;4.644;2023-08-06T13:53:20;3.40;;;0.90;;
69511;SDS011;70777;52.034;4.644;2023-08-06T13:55:46;8.30;;;1.02;;
69511;SDS011;70777;52.034;4.644;2023-08-06T13:58:11;7.00;;;0.70;;
69511;SDS011;70777;52.034;4.644;2023-08-06T14:00:37;3.88;;;0.95;;
69511;SDS011;70777;52.034;4.644;2023-08-06T14:03:03;7.25;;;1.10;;
69511;SDS011;70777;52.034;4.644;2023-08-06T14:05:29;7.53;;;1.40;;
69511;SDS011;70777;52.034;4.644;2023-08-06T14:07:57;5.85;;;1.30;;
69511;SDS011;70777;52.034;4.644;2023-08-06T14:10:22;6.43;;;1.00;;
69511;SDS011;70777;52.034;4.644;2023-08-06T14:12:48;6.60;;;1.17;;
69511;SDS011;70777;52.034;4.644;2023-08-06T14:15:14;7.13;;;1.13;;
69511;SDS011;70777;52.034;4.644;2023-08-06T14:17:39;4.43;;;1.13;;
69511;SDS011;70777;52.034;4.644;2023-08-06T14:20:05;7.60;;;1.33;;
69511;SDS011;70777;52.034;4.644;2023-08-06T14:22:33;11.65;;;1.20;;
69511;SDS011;70777;52.034;4.644;2023-08-06T14:24:59;6.38;;;1.20;;
69511;SDS011;70777;52.034;4.644;2023-08-06T14:27:24;8.52;;;1.10;;
69511;SDS011;70777;52.034;4.644;2023-08-06T14:29:50;4.97;;;1.05;;
69511;SDS011;70777;52.034;4.644;2023-08-06T14:32:16;6.05;;;1.90;;
69511;SDS011;70777;52.034;4.644;2023-08-06T14:34:43;5.40;;;0.90;;
69511;SDS011;70777;52.034;4.644;2023-08-06T14:37:09;10.07;;;1.42;;
69511;SDS011;70777;52.034;4.644;2023-08-06T14:39:34;10.57;;;1.35;;
69511;SDS011;70777;52.034;4.644;2023-08-06T14:42:00;5.20;;;1.00;;
69511;SDS011;70777;52.034;4.644;2023-08-06T14:44:25;11.02;;;1.52;;
69511;SDS011;70777;52.034;4.644;2023-08-06T14:46:54;7.35;;;1.45;;
69511;SDS011;70777;52.034;4.644;2023-08-06T14:49:20;6.93;;;1.38;;
69511;SDS011;70777;52.034;4.644;2023-08-06T14:51:45;5.55;;;1.38;;